createdAt,value
2023-03-12T00:00:39.212Z,1.60
2023-03-12T00:03:41.176Z,1.60
2023-03-12T00:06:42.851Z,1.55
2023-03-12T00:09:45.782Z,1.95
2023-03-12T00:12:47.418Z,1.70
2023-03-12T00:15:49.132Z,1.90
2023-03-12T00:18:52.690Z,1.75
2023-03-12T00:21:54.374Z,1.60
2023-03-12T00:24:57.324Z,1.70
2023-03-12T00:27:58.998Z,1.70
2023-03-12T00:31:01.761Z,1.90
2023-03-12T00:34:03.452Z,1.90
2023-03-12T00:37:05.343Z,1.90
2023-03-12T00:40:09.642Z,2.10
2023-03-12T00:43:11.316Z,2.03
2023-03-12T00:46:13.861Z,1.88
2023-03-12T00:49:15.511Z,2.10
2023-03-12T00:52:17.217Z,2.20
2023-03-12T00:55:18.887Z,2.30
2023-03-12T00:58:20.631Z,2.20
2023-03-12T01:01:22.536Z,2.25
2023-03-12T01:04:24.446Z,1.95
2023-03-12T01:07:26.190Z,2.17
2023-03-12T01:10:28.060Z,1.92
2023-03-12T01:13:30.530Z,2.28
2023-03-12T01:16:32.517Z,2.25
2023-03-12T01:19:34.196Z,2.50
2023-03-12T01:22:36.557Z,1.95
2023-03-12T01:25:38.334Z,2.33
2023-03-12T01:28:39.985Z,2.38
2023-03-12T01:31:41.670Z,2.22
2023-03-12T01:34:44.552Z,2.50
2023-03-12T01:37:46.388Z,2.63
2023-03-12T01:40:48.083Z,2.85
2023-03-12T01:43:49.898Z,2.47
2023-03-12T01:46:51.737Z,2.40
2023-03-12T01:49:57.030Z,2.80
2023-03-12T01:52:59.492Z,2.38
2023-03-12T01:56:02.220Z,2.08
2023-03-12T01:59:23.208Z,2.50
2023-03-12T02:02:28.723Z,2.80
2023-03-12T02:05:48.479Z,2.50
2023-03-12T02:11:52.559Z,3.30
2023-03-12T02:14:54.960Z,3.13
2023-03-12T02:17:56.693Z,2.85
2023-03-12T02:21:24.098Z,3.08
2023-03-12T02:24:30.827Z,3.15
2023-03-12T02:27:34.659Z,3.83
2023-03-12T02:30:37.273Z,3.20
2023-03-12T02:33:39.762Z,3.45
2023-03-12T02:36:41.563Z,3.10
2023-03-12T02:39:47.656Z,3.38
2023-03-12T02:42:49.470Z,3.28
2023-03-12T02:45:51.505Z,3.22
2023-03-12T02:48:53.972Z,3.45
2023-03-12T02:51:56.360Z,3.78
2023-03-12T02:54:58.188Z,3.72
2023-03-12T02:57:59.833Z,3.10
2023-03-12T03:01:01.986Z,3.17
2023-03-12T03:04:06.386Z,3.35
2023-03-12T03:07:08.063Z,3.20
2023-03-12T03:10:10.489Z,3.70
2023-03-12T03:13:12.654Z,3.35
2023-03-12T03:16:14.400Z,3.08
2023-03-12T03:19:16.408Z,3.20
2023-03-12T03:22:19.671Z,3.20
2023-03-12T03:25:23.213Z,3.10
2023-03-12T03:28:26.916Z,3.38
2023-03-12T03:31:28.951Z,3.58
2023-03-12T03:34:31.191Z,2.97
2023-03-12T03:37:32.788Z,3.30
2023-03-12T03:40:34.482Z,2.83
2023-03-12T03:43:36.222Z,2.80
2023-03-12T03:46:38.189Z,2.85
2023-03-12T03:49:42.886Z,2.70
2023-03-12T03:52:45.995Z,2.90
2023-03-12T03:55:48.118Z,2.95
2023-03-12T03:58:52.306Z,3.00
2023-03-12T04:01:56.118Z,2.80
2023-03-12T04:04:59.121Z,2.58
2023-03-12T04:08:05.388Z,2.78
2023-03-12T04:11:14.854Z,2.80
2023-03-12T04:14:17.103Z,2.67
2023-03-12T04:17:20.262Z,2.40
2023-03-12T04:20:22.372Z,2.50
2023-03-12T04:23:24.139Z,2.60
2023-03-12T04:26:26.076Z,2.67
2023-03-12T04:29:28.837Z,2.40
2023-03-12T04:32:31.074Z,2.55
2023-03-12T04:35:32.930Z,2.67
2023-03-12T04:38:34.895Z,2.60
2023-03-12T04:41:36.934Z,2.50
2023-03-12T04:47:45.321Z,2.45
2023-03-12T04:50:47.312Z,2.42
2023-03-12T04:53:48.925Z,2.35
2023-03-12T04:56:51.215Z,2.53
2023-03-12T04:59:55.590Z,2.30
2023-03-12T05:02:57.337Z,2.63
2023-03-12T05:05:59.239Z,2.33
2023-03-12T05:09:01.008Z,2.33
2023-03-12T05:12:02.748Z,2.30
2023-03-12T05:15:04.818Z,2.00
2023-03-12T05:18:06.422Z,2.60
2023-03-12T05:21:12.167Z,2.53
2023-03-12T05:24:13.936Z,2.57
2023-03-12T05:27:15.768Z,2.30
2023-03-12T05:30:17.634Z,2.47
2023-03-12T05:33:19.474Z,2.10
2023-03-12T05:36:21.768Z,2.60
2023-03-12T05:39:24.588Z,2.63
2023-03-12T05:42:26.339Z,2.35
2023-03-12T05:45:28.429Z,2.50
2023-03-12T05:48:31.845Z,2.50
2023-03-12T05:51:33.849Z,2.58
2023-03-12T05:54:35.757Z,2.70
2023-03-12T05:57:39.104Z,2.83
2023-03-12T06:00:41.735Z,2.90
2023-03-12T06:03:45.046Z,3.20
2023-03-12T06:06:47.281Z,3.17
2023-03-12T06:09:49.159Z,3.40
2023-03-12T06:12:51.678Z,3.15
2023-03-12T06:15:53.318Z,3.13
2023-03-12T06:19:01.124Z,2.80
2023-03-12T06:22:04.215Z,2.95
2023-03-12T06:25:06.515Z,2.85
2023-03-12T06:28:09.152Z,3.25
2023-03-12T06:31:10.927Z,3.22
2023-03-12T06:34:12.694Z,2.55
2023-03-12T06:37:14.329Z,3.22
2023-03-12T06:40:16.049Z,3.05
2023-03-12T06:43:17.591Z,2.80
2023-03-12T06:46:21.961Z,2.67
2023-03-12T06:49:24.136Z,2.58
2023-03-12T06:52:25.853Z,2.63
2023-03-12T06:55:27.910Z,1.98
2023-03-12T06:58:30.066Z,2.35
2023-03-12T07:01:31.753Z,2.58
2023-03-12T07:04:33.755Z,2.33
2023-03-12T07:07:35.334Z,2.20
2023-03-12T07:10:37.106Z,2.28
2023-03-12T07:13:39.007Z,2.35
2023-03-12T07:16:40.612Z,2.88
2023-03-12T07:19:42.291Z,2.47
2023-03-12T07:22:43.884Z,2.33
2023-03-12T07:25:45.978Z,2.42
2023-03-12T07:28:47.791Z,2.40
2023-03-12T07:31:49.349Z,2.20
2023-03-12T07:34:50.904Z,2.40
2023-03-12T07:37:52.520Z,2.25
2023-03-12T07:40:56.137Z,2.10
2023-03-12T07:43:57.876Z,2.60
2023-03-12T07:47:09.716Z,2.10
2023-03-12T07:50:19.310Z,2.00
2023-03-12T07:53:21.034Z,2.05
2023-03-12T07:56:23.196Z,1.80
2023-03-12T07:59:26.905Z,2.20
2023-03-12T08:02:28.651Z,2.05
2023-03-12T08:05:30.402Z,2.00
2023-03-12T08:08:32.362Z,1.50
2023-03-12T08:11:34.468Z,1.70
2023-03-12T08:14:36.187Z,1.92
2023-03-12T08:17:38.015Z,5.10
2023-03-12T08:20:39.638Z,2.10
2023-03-12T08:23:41.260Z,2.08
2023-03-12T08:26:42.884Z,2.10
2023-03-12T08:29:44.580Z,2.58
2023-03-12T08:32:46.608Z,2.20
2023-03-12T08:35:50.508Z,2.10
2023-03-12T08:38:52.207Z,2.03
2023-03-12T08:41:55.509Z,2.10
2023-03-12T08:44:57.194Z,2.03
2023-03-12T08:47:58.763Z,1.95
2023-03-12T08:51:04.203Z,1.83
2023-03-12T08:54:05.993Z,2.15
2023-03-12T08:57:07.591Z,2.00
2023-03-12T09:00:14.946Z,2.30
2023-03-12T09:03:17.103Z,2.80
2023-03-12T09:06:19.504Z,2.45
2023-03-12T09:09:21.131Z,2.40
2023-03-12T09:12:23.500Z,2.65
2023-03-12T09:15:25.255Z,2.88
2023-03-12T09:18:27.446Z,2.30
2023-03-12T09:21:29.297Z,2.50
2023-03-12T09:24:31.018Z,2.45
2023-03-12T09:27:37.304Z,2.38
2023-03-12T09:30:39.111Z,2.70
2023-03-12T09:33:40.720Z,2.70
2023-03-12T09:36:42.391Z,2.40
2023-03-12T09:39:43.967Z,2.60
2023-03-12T09:43:17.990Z,2.83
2023-03-12T09:46:33.346Z,2.70
2023-03-12T09:49:45.191Z,3.00
2023-03-12T09:52:57.046Z,2.50
2023-03-12T09:56:00.738Z,2.47
2023-03-12T09:59:02.937Z,2.38
2023-03-12T10:02:29.797Z,2.33
2023-03-12T10:05:34.421Z,2.72
2023-03-12T10:08:56.768Z,2.58
2023-03-12T10:12:21.180Z,2.60
2023-03-12T10:15:27.903Z,2.40
2023-03-12T10:18:48.966Z,2.72
2023-03-12T10:22:25.504Z,2.70
2023-03-12T10:25:39.366Z,2.05
2023-03-12T10:29:04.982Z,2.10
2023-03-12T10:32:12.266Z,2.50
2023-03-12T10:35:21.867Z,1.90
2023-03-12T10:38:29.643Z,1.80
2023-03-12T10:41:34.786Z,1.83
2023-03-12T10:44:36.580Z,1.60
2023-03-12T10:47:42.996Z,2.00
2023-03-12T10:51:02.139Z,1.80
2023-03-12T10:54:22.468Z,1.70
2023-03-12T10:57:40.600Z,1.70
2023-03-12T11:00:58.690Z,2.60
2023-03-12T11:04:19.767Z,2.10
2023-03-12T11:07:27.776Z,2.42
2023-03-12T11:10:32.473Z,2.58
2023-03-12T11:13:37.982Z,2.10
2023-03-12T11:16:40.008Z,1.97
2023-03-12T11:19:41.641Z,1.65
2023-03-12T11:22:43.482Z,1.92
2023-03-12T11:25:52.090Z,3.85
2023-03-12T11:29:04.458Z,2.72
2023-03-12T11:32:12.257Z,2.03
2023-03-12T11:35:18.267Z,2.10
2023-03-12T11:38:25.386Z,1.83
2023-03-12T11:41:54.644Z,2.00
2023-03-12T11:45:06.041Z,1.90
2023-03-12T11:48:31.062Z,1.85
2023-03-12T11:51:49.826Z,1.77
2023-03-12T11:54:51.367Z,2.00
2023-03-12T11:58:12.656Z,2.00
2023-03-12T12:01:32.440Z,1.92
2023-03-12T12:04:58.794Z,2.00
2023-03-12T12:08:40.914Z,1.97
2023-03-12T12:12:03.515Z,2.03
2023-03-12T12:15:34.586Z,1.80
2023-03-12T12:19:18.342Z,1.77
2023-03-12T12:22:41.887Z,1.65
2023-03-12T12:25:58.946Z,2.22
2023-03-12T12:29:18.630Z,1.50
2023-03-12T12:32:59.041Z,1.70
2023-03-12T12:36:01.384Z,1.92
2023-03-12T12:39:11.949Z,1.50
2023-03-12T12:42:23.049Z,1.58
2023-03-12T12:45:29.063Z,1.80
2023-03-12T12:48:48.611Z,2.90
2023-03-12T12:52:01.717Z,2.05
2023-03-12T12:55:20.112Z,2.22
2023-03-12T12:58:30.954Z,1.50
2023-03-12T13:01:35.428Z,1.50
2023-03-12T13:04:39.326Z,1.60
2023-03-12T13:07:40.988Z,1.50
2023-03-12T13:10:53.010Z,1.75
2023-03-12T13:14:04.626Z,1.83
2023-03-12T13:17:27.877Z,1.40
2023-03-12T13:20:33.537Z,1.60
2023-03-12T13:23:59.759Z,1.70
2023-03-12T13:27:17.554Z,1.48
2023-03-12T13:30:46.640Z,1.77
2023-03-12T13:33:50.973Z,1.50
2023-03-12T13:36:59.420Z,2.00
2023-03-12T13:40:02.218Z,1.88
2023-03-12T13:43:10.007Z,2.20
2023-03-12T13:46:14.859Z,1.80
2023-03-12T13:49:18.791Z,2.20
2023-03-12T13:52:27.093Z,1.65
2023-03-12T13:55:31.538Z,1.67
2023-03-12T13:58:41.685Z,1.80
2023-03-12T14:01:48.730Z,1.75
2023-03-12T14:04:50.861Z,1.70
2023-03-12T14:08:04.356Z,1.67
2023-03-12T14:11:40.265Z,1.77
2023-03-12T14:14:50.657Z,1.45
2023-03-12T14:18:03.056Z,1.55
2023-03-12T14:21:10.088Z,1.67
2023-03-12T14:24:47.927Z,1.33
2023-03-12T14:27:49.883Z,1.63
2023-03-12T14:31:02.278Z,1.70
2023-03-12T14:34:20.472Z,1.70
2023-03-12T14:37:28.256Z,1.85
2023-03-12T14:40:38.345Z,1.88
2023-03-12T14:43:42.083Z,1.63
2023-03-12T14:46:56.084Z,1.88
2023-03-12T14:49:58.362Z,1.85
2023-03-12T14:53:20.197Z,1.40
2023-03-12T14:56:29.506Z,1.88
2023-03-12T14:59:35.044Z,2.88
2023-03-12T15:02:37.798Z,2.10
2023-03-12T15:05:48.037Z,1.65
2023-03-12T15:08:49.929Z,2.80
2023-03-12T15:11:58.076Z,2.40
2023-03-12T15:15:17.812Z,1.73
2023-03-12T15:18:25.819Z,2.13
2023-03-12T15:21:27.538Z,1.63
2023-03-12T15:24:34.458Z,2.10
2023-03-12T15:27:36.062Z,1.60
2023-03-12T15:30:39.256Z,1.80
2023-03-12T15:33:43.231Z,1.98
2023-03-12T15:36:49.764Z,2.20
2023-03-12T15:39:53.269Z,2.17
2023-03-12T15:42:59.173Z,1.75
2023-03-12T15:46:03.486Z,2.45
2023-03-12T15:49:05.197Z,2.20
2023-03-12T15:52:27.113Z,2.13
2023-03-12T15:55:31.824Z,2.40
2023-03-12T15:58:41.847Z,3.28
2023-03-12T16:01:47.804Z,2.63
2023-03-12T16:04:49.387Z,2.30
2023-03-12T16:07:51.098Z,2.45
2023-03-12T16:10:53.250Z,2.67
2023-03-12T16:14:13.549Z,2.17
2023-03-12T16:17:19.292Z,3.20
2023-03-12T16:20:21.034Z,2.88
2023-03-12T16:23:22.801Z,3.00
2023-03-12T16:26:24.420Z,2.80
2023-03-12T16:29:34.503Z,3.20
2023-03-12T16:32:36.117Z,4.53
2023-03-12T16:35:37.939Z,6.40
2023-03-12T16:38:39.592Z,3.38
2023-03-12T16:41:42.186Z,3.53
2023-03-12T16:44:46.313Z,3.80
2023-03-12T16:47:54.708Z,5.07
2023-03-12T16:50:58.869Z,4.63
2023-03-12T16:54:09.769Z,9.10
2023-03-12T16:57:32.980Z,6.45
2023-03-12T17:00:35.380Z,3.03
2023-03-12T17:03:39.719Z,2.83
2023-03-12T17:06:41.554Z,5.82
2023-03-12T17:09:43.182Z,3.22
2023-03-12T17:12:46.870Z,3.00
2023-03-12T17:15:50.227Z,2.53
2023-03-12T17:18:51.919Z,2.90
2023-03-12T17:21:53.694Z,4.85
2023-03-12T17:24:55.247Z,3.08
2023-03-12T17:27:57.475Z,2.80
2023-03-12T17:30:59.101Z,3.40
2023-03-12T17:34:03.846Z,3.10
2023-03-12T17:37:05.488Z,3.00
2023-03-12T17:40:09.446Z,2.30
2023-03-12T17:43:11.126Z,2.58
2023-03-12T17:46:12.839Z,2.83
2023-03-12T17:49:14.487Z,3.00
2023-03-12T17:52:16.152Z,2.50
2023-03-12T17:55:17.785Z,4.22
2023-03-12T17:58:19.406Z,4.75
2023-03-12T18:01:20.981Z,3.40
2023-03-12T18:04:22.635Z,3.58
2023-03-12T18:07:24.402Z,2.72
2023-03-12T18:10:26.013Z,2.30
2023-03-12T18:13:27.579Z,2.60
2023-03-12T18:16:29.396Z,2.50
2023-03-12T18:19:31.033Z,2.63
2023-03-12T18:22:32.671Z,3.03
2023-03-12T18:25:34.280Z,2.55
2023-03-12T18:28:35.933Z,2.40
2023-03-12T18:31:37.728Z,2.50
2023-03-12T18:34:42.340Z,2.75
2023-03-12T18:37:44.886Z,2.20
2023-03-12T18:40:46.503Z,3.65
2023-03-12T18:43:48.128Z,4.35
2023-03-12T18:46:51.773Z,4.50
2023-03-12T18:49:55.154Z,3.08
2023-03-12T18:52:56.790Z,5.90
2023-03-12T18:55:59.150Z,2.88
2023-03-12T18:59:00.780Z,3.35
2023-03-12T19:02:02.389Z,2.40
2023-03-12T19:05:04.261Z,2.63
2023-03-12T19:08:06.071Z,2.95
2023-03-12T19:11:13.356Z,2.58
2023-03-12T19:14:15.165Z,2.50
2023-03-12T19:17:16.954Z,2.60
2023-03-12T19:20:18.683Z,3.40
2023-03-12T19:23:20.627Z,4.00
2023-03-12T19:26:22.641Z,2.65
2023-03-12T19:29:24.360Z,3.50
2023-03-12T19:32:33.284Z,2.95
2023-03-12T19:35:43.850Z,2.63
2023-03-12T19:38:45.462Z,2.13
2023-03-12T19:41:47.057Z,2.60
2023-03-12T19:44:51.737Z,2.75
2023-03-12T19:47:53.423Z,3.03
2023-03-12T19:50:55.983Z,2.88
2023-03-12T19:53:57.585Z,2.30
2023-03-12T19:56:59.282Z,2.72
2023-03-12T20:00:00.943Z,2.28
2023-03-12T20:03:02.824Z,2.75
2023-03-12T20:06:08.037Z,3.00
2023-03-12T20:09:09.865Z,2.55
2023-03-12T20:12:11.544Z,3.10
2023-03-12T20:15:13.209Z,3.30
2023-03-12T20:18:15.537Z,4.05
2023-03-12T20:21:17.129Z,3.47
2023-03-12T20:24:18.757Z,8.63
2023-03-12T20:27:21.168Z,3.17
2023-03-12T20:30:22.800Z,3.03
2023-03-12T20:33:24.470Z,2.92
2023-03-12T20:36:26.217Z,2.47
2023-03-12T20:39:27.825Z,4.50
2023-03-12T20:42:29.439Z,2.70
2023-03-12T20:45:34.537Z,3.30
2023-03-12T20:48:36.175Z,3.92
2023-03-12T20:51:37.780Z,2.58
2023-03-12T20:54:39.385Z,3.30
2023-03-12T20:57:40.954Z,2.83
2023-03-12T21:00:44.239Z,2.95
2023-03-12T21:03:45.970Z,2.88
2023-03-12T21:06:47.773Z,2.80
2023-03-12T21:09:49.856Z,2.80
2023-03-12T21:12:51.560Z,3.95
2023-03-12T21:15:54.261Z,2.83
2023-03-12T21:18:57.442Z,3.50
2023-03-12T21:21:59.286Z,2.17
2023-03-12T21:25:01.303Z,2.45
2023-03-12T21:28:04.585Z,3.80
2023-03-12T21:31:09.062Z,3.67
2023-03-12T21:34:10.744Z,4.35
2023-03-12T21:37:12.382Z,3.08
2023-03-12T21:40:14.669Z,2.70
2023-03-12T21:43:16.257Z,2.20
2023-03-12T21:46:20.395Z,2.50
2023-03-12T21:49:22.290Z,2.65
2023-03-12T21:52:23.906Z,2.53
2023-03-12T21:55:25.522Z,2.75
2023-03-12T21:58:28.933Z,2.72
2023-03-12T22:01:30.499Z,3.03
2023-03-12T22:04:32.263Z,3.38
2023-03-12T22:07:33.895Z,3.67
2023-03-12T22:10:35.466Z,3.17
2023-03-12T22:13:37.714Z,2.17
2023-03-12T22:16:39.700Z,3.92
2023-03-12T22:19:42.101Z,2.30
2023-03-12T22:22:43.918Z,2.47
2023-03-12T22:25:45.713Z,3.00
2023-03-12T22:28:50.726Z,2.20
2023-03-12T22:31:52.276Z,2.33
2023-03-12T22:34:53.863Z,2.42
2023-03-12T22:37:56.253Z,2.17
2023-03-12T22:40:57.889Z,2.65
2023-03-12T22:44:05.434Z,2.30
2023-03-12T22:47:07.367Z,2.30
2023-03-12T22:50:10.016Z,2.70
2023-03-12T22:53:11.595Z,2.10
2023-03-12T22:56:14.069Z,2.20
2023-03-12T22:59:16.458Z,2.20
2023-03-12T23:02:18.491Z,2.00
2023-03-12T23:05:20.381Z,2.00
2023-03-12T23:08:23.180Z,1.73
2023-03-12T23:11:27.977Z,2.10
2023-03-12T23:14:29.650Z,2.10
2023-03-12T23:17:31.254Z,1.80
2023-03-12T23:20:32.834Z,1.70
2023-03-12T23:23:36.013Z,1.70
2023-03-12T23:26:37.730Z,2.00
2023-03-12T23:29:39.480Z,2.25
2023-03-12T23:32:41.209Z,1.98
2023-03-12T23:35:42.975Z,1.70
2023-03-12T23:38:46.486Z,1.95
2023-03-12T23:41:48.224Z,1.60
2023-03-12T23:44:49.858Z,1.90
2023-03-12T23:47:51.646Z,1.75
2023-03-12T23:50:53.886Z,1.60
2023-03-12T23:53:57.999Z,1.80
2023-03-12T23:56:59.942Z,1.60
